sensor_id;sensor_type;location;lat;lon;timestamp;pressure;altitude;pressure_sealevel;temperature;humidity
19447;BME280;9862;49.462;11.054;2023-05-01T00:01:31;98134.84;;;15.25;90.04
19447;BME280;9862;49.462;11.054;2023-05-01T00:03:57;98123.19;;;15.20;89.37
19447;BME280;9862;49.462;11.054;2023-05-01T00:06:24;98122.03;;;15.15;90.33
19447;BME280;9862;49.462;11.054;2023-05-01T00:08:52;98122.72;;;15.11;90.90
19447;BME280;9862;49.462;11.054;2023-05-01T00:11:20;98120.53;;;15.08;90.81
19447;BME280;9862;49.462;11.054;2023-05-01T00:13:47;98119.56;;;15.14;89.29
19447;BME280;9862;49.462;11.054;2023-05-01T00:16:13;98117.94;;;15.13;88.74
19447;BME280;9862;49.462;11.054;2023-05-01T00:18:41;98119.13;;;15.17;87.63
19447;BME280;9862;49.462;11.054;2023-05-01T00:21:07;98113.53;;;15.07;87.99
19447;BME280;9862;49.462;11.054;2023-05-01T00:23:34;98109.44;;;15.04;88.53
19447;BME280;9862;49.462;11.054;2023-05-01T00:26:00;98108.31;;;15.00;88.45
19447;BME280;9862;49.462;11.054;2023-05-01T00:28:28;98101.56;;;14.98;88.36
19447;BME280;9862;49.462;11.054;2023-05-01T00:30:56;98101.91;;;14.89;88.77
19447;BME280;9862;49.462;11.054;2023-05-01T00:33:22;98092.34;;;14.82;88.52
19447;BME280;9862;49.462;11.054;2023-05-01T00:35:49;98089.34;;;14.78;88.15
19447;BME280;9862;49.462;11.054;2023-05-01T00:38:17;98092.94;;;14.72;88.42
19447;BME280;9862;49.462;11.054;2023-05-01T00:40:44;98081.28;;;14.67;88.56
19447;BME280;9862;49.462;11.054;2023-05-01T00:43:11;98078.16;;;14.70;87.78
19447;BME280;9862;49.462;11.054;2023-05-01T00:45:43;98076.41;;;14.64;88.08
19447;BME280;9862;49.462;11.054;2023-05-01T00:48:10;98078.75;;;14.60;87.47
19447;BME280;9862;49.462;11.054;2023-05-01T00:50:37;98078.59;;;14.55;87.29
19447;BME280;9862;49.462;11.054;2023-05-01T00:53:04;98072.19;;;14.56;86.56
19447;BME280;9862;49.462;11.054;2023-05-01T00:55:31;98068.84;;;14.60;86.64
19447;BME280;9862;49.462;11.054;2023-05-01T00:58:00;98066.00;;;14.44;87.45
19447;BME280;9862;49.462;11.054;2023-05-01T01:00:26;98063.66;;;14.36;87.40
19447;BME280;9862;49.462;11.054;2023-05-01T01:02:55;98064.72;;;14.35;86.94
19447;BME280;9862;49.462;11.054;2023-05-01T01:05:24;98062.03;;;14.35;87.47
19447;BME280;9862;49.462;11.054;2023-05-01T01:07:58;98053.09;;;14.29;87.66
19447;BME280;9862;49.462;11.054;2023-05-01T01:10:34;98061.34;;;14.39;86.60
19447;BME280;9862;49.462;11.054;2023-05-01T01:13:07;98056.09;;;14.32;86.84
19447;BME280;9862;49.462;11.054;2023-05-01T01:15:43;98050.41;;;14.29;87.15
19447;BME280;9862;49.462;11.054;2023-05-01T01:18:15;98048.75;;;14.28;87.89
19447;BME280;9862;49.462;11.054;2023-05-01T01:20:48;98042.81;;;14.26;88.02
19447;BME280;9862;49.462;11.054;2023-05-01T01:23:36;98040.47;;;14.18;87.86
19447;BME280;9862;49.462;11.054;2023-05-01T01:26:13;98043.53;;;14.10;87.92
19447;BME280;9862;49.462;11.054;2023-05-01T01:29:03;98046.75;;;14.00;89.71
19447;BME280;9862;49.462;11.054;2023-05-01T01:31:45;98050.59;;;14.04;89.64
19447;BME280;9862;49.462;11.054;2023-05-01T01:34:18;98041.53;;;14.05;89.26
19447;BME280;9862;49.462;11.054;2023-05-01T01:36:48;98040.25;;;14.08;89.42
19447;BME280;9862;49.462;11.054;2023-05-01T01:39:23;98041.53;;;14.05;89.78
19447;BME280;9862;49.462;11.054;2023-05-01T01:41:53;98041.06;;;14.08;89.37
19447;BME280;9862;49.462;11.054;2023-05-01T01:44:28;98040.63;;;14.11;89.45
19447;BME280;9862;49.462;11.054;2023-05-01T01:46:57;98039.91;;;14.04;90.50
19447;BME280;9862;49.462;11.054;2023-05-01T01:49:27;98037.47;;;14.02;90.36
19447;BME280;9862;49.462;11.054;2023-05-01T01:51:55;98033.72;;;14.03;89.11
19447;BME280;9862;49.462;11.054;2023-05-01T01:54:28;98033.72;;;14.03;90.04
19447;BME280;9862;49.462;11.054;2023-05-01T01:56:56;98028.94;;;13.94;89.46
19447;BME280;9862;49.462;11.054;2023-05-01T01:59:29;98030.09;;;13.86;90.74
19447;BME280;9862;49.462;11.054;2023-05-01T02:01:57;98027.41;;;13.86;91.44
19447;BME280;9862;49.462;11.054;2023-05-01T02:04:26;98024.41;;;13.94;90.37
19447;BME280;9862;49.462;11.054;2023-05-01T02:06:54;98021.25;;;13.86;90.08
19447;BME280;9862;49.462;11.054;2023-05-01T02:09:22;98023.44;;;13.89;90.20
19447;BME280;9862;49.462;11.054;2023-05-01T02:11:52;98020.78;;;13.89;88.59
19447;BME280;9862;49.462;11.054;2023-05-01T02:14:20;98017.09;;;13.90;89.26
19447;BME280;9862;49.462;11.054;2023-05-01T02:16:50;98015.31;;;13.84;88.70
19447;BME280;9862;49.462;11.054;2023-05-01T02:19:18;98020.91;;;13.82;89.67
19447;BME280;9862;49.462;11.054;2023-05-01T02:21:51;98012.72;;;13.77;90.17
19447;BME280;9862;49.462;11.054;2023-05-01T02:24:21;98014.00;;;13.74;89.83
19447;BME280;9862;49.462;11.054;2023-05-01T02:26:53;98012.84;;;13.70;90.75
19447;BME280;9862;49.462;11.054;2023-05-01T02:29:24;98016.19;;;13.66;91.43
19447;BME280;9862;49.462;11.054;2023-05-01T02:31:52;98007.50;;;13.70;90.82
19447;BME280;9862;49.462;11.054;2023-05-01T02:34:19;98009.81;;;13.67;91.42
19447;BME280;9862;49.462;11.054;2023-05-01T02:36:47;97999.81;;;13.62;91.23
19447;BME280;9862;49.462;11.054;2023-05-01T02:39:15;97996.19;;;13.57;91.88
19447;BME280;9862;49.462;11.054;2023-05-01T02:41:42;98004.34;;;13.62;92.08
19447;BME280;9862;49.462;11.054;2023-05-01T02:44:11;97995.94;;;13.58;92.56
19447;BME280;9862;49.462;11.054;2023-05-01T02:46:41;97995.00;;;13.53;92.28
19447;BME280;9862;49.462;11.054;2023-05-01T02:49:09;97997.06;;;13.51;92.28
19447;BME280;9862;49.462;11.054;2023-05-01T02:51:36;97989.19;;;13.56;92.06
19447;BME280;9862;49.462;11.054;2023-05-01T02:54:05;97994.19;;;13.52;92.12
19447;BME280;9862;49.462;11.054;2023-05-01T02:56:33;97992.09;;;13.54;92.60
19447;BME280;9862;49.462;11.054;2023-05-01T02:59:00;97996.16;;;13.45;93.69
19447;BME280;9862;49.462;11.054;2023-05-01T03:01:26;97990.66;;;13.40;93.83
19447;BME280;9862;49.462;11.054;2023-05-01T03:03:54;97996.72;;;13.47;93.05
19447;BME280;9862;49.462;11.054;2023-05-01T03:06:20;97997.03;;;13.39;93.22
19447;BME280;9862;49.462;11.054;2023-05-01T03:08:47;97992.16;;;13.36;93.04
19447;BME280;9862;49.462;11.054;2023-05-01T03:11:15;97988.75;;;13.29;95.02
19447;BME280;9862;49.462;11.054;2023-05-01T03:13:41;97990.84;;;13.27;94.14
19447;BME280;9862;49.462;11.054;2023-05-01T03:16:08;97989.31;;;13.19;94.85
19447;BME280;9862;49.462;11.054;2023-05-01T03:18:34;98001.22;;;13.16;93.62
19447;BME280;9862;49.462;11.054;2023-05-01T03:21:01;97997.97;;;13.14;97.18
19447;BME280;9862;49.462;11.054;2023-05-01T03:23:28;97993.97;;;13.24;94.54
19447;BME280;9862;49.462;11.054;2023-05-01T03:25:54;97985.66;;;13.32;95.01
19447;BME280;9862;49.462;11.054;2023-05-01T03:28:23;97978.66;;;13.31;94.29
19447;BME280;9862;49.462;11.054;2023-05-01T03:30:49;97979.69;;;13.30;95.14
19447;BME280;9862;49.462;11.054;2023-05-01T03:33:16;97979.63;;;13.18;96.31
19447;BME280;9862;49.462;11.054;2023-05-01T03:35:43;97976.09;;;13.24;95.23
19447;BME280;9862;49.462;11.054;2023-05-01T03:38:09;97970.75;;;13.24;94.52
19447;BME280;9862;49.462;11.054;2023-05-01T03:40:36;97974.59;;;13.28;93.33
19447;BME280;9862;49.462;11.054;2023-05-01T03:43:03;97972.72;;;13.29;94.02
19447;BME280;9862;49.462;11.054;2023-05-01T03:45:31;97966.66;;;13.22;93.61
19447;BME280;9862;49.462;11.054;2023-05-01T03:47:57;97960.34;;;13.16;94.60
19447;BME280;9862;49.462;11.054;2023-05-01T03:50:24;97967.28;;;13.05;95.30
19447;BME280;9862;49.462;11.054;2023-05-01T03:52:50;97961.94;;;13.05;94.31
19447;BME280;9862;49.462;11.054;2023-05-01T03:55:17;97956.06;;;12.97;95.40
19447;BME280;9862;49.462;11.054;2023-05-01T03:57:43;97962.31;;;12.90;95.31
19447;BME280;9862;49.462;11.054;2023-05-01T04:00:12;97962.19;;;12.85;95.67
19447;BME280;9862;49.462;11.054;2023-05-01T04:02:40;97951.41;;;12.92;96.07
19447;BME280;9862;49.462;11.054;2023-05-01T04:05:07;97953.41;;;12.97;96.86
19447;BME280;9862;49.462;11.054;2023-05-01T04:07:34;97965.78;;;12.91;95.41
19447;BME280;9862;49.462;11.054;2023-05-01T04:10:01;97957.00;;;13.02;96.22
19447;BME280;9862;49.462;11.054;2023-05-01T04:12:27;97955.78;;;13.05;94.74
19447;BME280;9862;49.462;11.054;2023-05-01T04:14:54;97955.06;;;13.09;93.25
19447;BME280;9862;49.462;11.054;2023-05-01T04:17:20;97964.41;;;13.18;93.40
19447;BME280;9862;49.462;11.054;2023-05-01T04:19:49;97959.69;;;13.02;95.00
19447;BME280;9862;49.462;11.054;2023-05-01T04:22:15;97956.13;;;13.08;94.66
19447;BME280;9862;49.462;11.054;2023-05-01T04:24:42;97956.13;;;13.08;93.83
19447;BME280;9862;49.462;11.054;2023-05-01T04:27:08;97957.75;;;13.09;93.52
19447;BME280;9862;49.462;11.054;2023-05-01T04:29:35;97956.44;;;13.00;95.86
19447;BME280;9862;49.462;11.054;2023-05-01T04:32:02;97966.06;;;13.20;94.13
19447;BME280;9862;49.462;11.054;2023-05-01T04:34:28;97957.00;;;13.21;91.86
19447;BME280;9862;49.462;11.054;2023-05-01T04:36:56;97962.44;;;13.14;93.66
19447;BME280;9862;49.462;11.054;2023-05-01T04:39:23;97963.38;;;13.20;92.56
19447;BME280;9862;49.462;11.054;2023-05-01T04:41:49;97956.34;;;13.25;92.41
19447;BME280;9862;49.462;11.054;2023-05-01T04:44:16;97967.53;;;13.15;92.04
19447;BME280;9862;49.462;11.054;2023-05-01T04:46:43;97959.06;;;13.18;92.36
19447;BME280;9862;49.462;11.054;2023-05-01T04:49:10;97962.66;;;13.12;92.31
19447;BME280;9862;49.462;11.054;2023-05-01T04:51:36;97960.28;;;13.23;92.08
19447;BME280;9862;49.462;11.054;2023-05-01T04:54:05;97964.22;;;13.20;91.96
19447;BME280;9862;49.462;11.054;2023-05-01T04:56:31;97963.59;;;13.18;90.76
19447;BME280;9862;49.462;11.054;2023-05-01T04:58:58;97953.59;;;13.13;93.40
19447;BME280;9862;49.462;11.054;2023-05-01T05:01:24;97960.09;;;13.17;92.94
19447;BME280;9862;49.462;11.054;2023-05-01T05:03:51;97963.31;;;13.26;90.76
19447;BME280;9862;49.462;11.054;2023-05-01T05:06:17;97947.84;;;13.28;90.57
19447;BME280;9862;49.462;11.054;2023-05-01T05:08:44;97956.38;;;13.18;91.37
19447;BME280;9862;49.462;11.054;2023-05-01T05:11:12;97956.09;;;13.27;91.16
19447;BME280;9862;49.462;11.054;2023-05-01T05:13:38;97955.88;;;13.28;91.07
19447;BME280;9862;49.462;11.054;2023-05-01T05:16:05;97945.09;;;13.35;90.40
19447;BME280;9862;49.462;11.054;2023-05-01T05:18:32;97944.03;;;13.24;91.47
19447;BME280;9862;49.462;11.054;2023-05-01T05:21:02;97948.09;;;13.27;90.99
19447;BME280;9862;49.462;11.054;2023-05-01T05:23:28;97953.91;;;13.24;90.66
19447;BME280;9862;49.462;11.054;2023-05-01T05:25:55;97950.75;;;13.27;90.76
19447;BME280;9862;49.462;11.054;2023-05-01T05:28:25;97938.22;;;13.27;90.69
19447;BME280;9862;49.462;11.054;2023-05-01T05:30:52;97955.53;;;13.25;90.99
19447;BME280;9862;49.462;11.054;2023-05-01T05:33:18;97956.59;;;13.35;91.77
19447;BME280;9862;49.462;11.054;2023-05-01T05:35:45;97955.22;;;13.44;90.29
19447;BME280;9862;49.462;11.054;2023-05-01T05:38:12;97952.00;;;13.54;89.49
19447;BME280;9862;49.462;11.054;2023-05-01T05:40:39;97948.84;;;13.57;90.25
19447;BME280;9862;49.462;11.054;2023-05-01T05:43:06;97940.03;;;13.68;88.92
19447;BME280;9862;49.462;11.054;2023-05-01T05:45:35;97938.44;;;13.91;87.15
19447;BME280;9862;49.462;11.054;2023-05-01T05:48:01;97939.13;;;13.98;85.88
19447;BME280;9862;49.462;11.054;2023-05-01T05:50:28;97941.00;;;13.86;87.66
19447;BME280;9862;49.462;11.054;2023-05-01T05:52:54;97942.03;;;13.96;85.78
19447;BME280;9862;49.462;11.054;2023-05-01T05:55:21;97939.59;;;13.95;85.23
19447;BME280;9862;49.462;11.054;2023-05-01T05:57:48;97931.47;;;13.90;86.01
19447;BME280;9862;49.462;11.054;2023-05-01T06:00:15;97933.44;;;13.94;86.16
19447;BME280;9862;49.462;11.054;2023-05-01T06:02:44;97924.13;;;14.09;85.69
19447;BME280;9862;49.462;11.054;2023-05-01T06:05:10;97926.34;;;14.00;86.99
19447;BME280;9862;49.462;11.054;2023-05-01T06:07:37;97931.22;;;14.03;89.00
19447;BME280;9862;49.462;11.054;2023-05-01T06:10:05;97930.53;;;14.08;88.32
19447;BME280;9862;49.462;11.054;2023-05-01T06:12:31;97934.03;;;14.20;85.62
19447;BME280;9862;49.462;11.054;2023-05-01T06:14:58;97929.09;;;14.40;85.07
19447;BME280;9862;49.462;11.054;2023-05-01T06:17:25;97928.44;;;14.21;86.12
19447;BME280;9862;49.462;11.054;2023-05-01T06:19:53;97936.47;;;14.21;88.00
19447;BME280;9862;49.462;11.054;2023-05-01T06:22:20;97916.66;;;14.34;89.37
19447;BME280;9862;49.462;11.054;2023-05-01T06:24:46;97919.34;;;14.57;86.00
19447;BME280;9862;49.462;11.054;2023-05-01T06:27:13;97922.66;;;14.65;86.58
19447;BME280;9862;49.462;11.054;2023-05-01T06:29:39;97914.50;;;14.71;84.41
19447;BME280;9862;49.462;11.054;2023-05-01T06:32:06;97912.75;;;14.77;85.30
19447;BME280;9862;49.462;11.054;2023-05-01T06:34:33;97919.56;;;14.84;85.49
19447;BME280;9862;49.462;11.054;2023-05-01T06:37:01;97906.84;;;14.92;86.11
19447;BME280;9862;49.462;11.054;2023-05-01T06:39:29;97908.44;;;15.04;84.09
19447;BME280;9862;49.462;11.054;2023-05-01T06:41:55;97908.34;;;14.99;84.50
19447;BME280;9862;49.462;11.054;2023-05-01T06:44:22;97893.16;;;15.05;83.57
19447;BME280;9862;49.462;11.054;2023-05-01T06:46:49;97901.19;;;15.05;83.93
19447;BME280;9862;49.462;11.054;2023-05-01T06:49:15;97897.25;;;15.07;83.18
19447;BME280;9862;49.462;11.054;2023-05-01T06:51:42;97907.06;;;15.02;83.83
19447;BME280;9862;49.462;11.054;2023-05-01T06:54:10;97900.56;;;14.98;83.67
19447;BME280;9862;49.462;11.054;2023-05-01T06:56:37;97899.25;;;15.00;84.63
19447;BME280;9862;49.462;11.054;2023-05-01T06:59:04;97895.19;;;14.98;84.50
19447;BME280;9862;49.462;11.054;2023-05-01T07:01:30;97905.31;;;14.96;85.14
19447;BME280;9862;49.462;11.054;2023-05-01T07:03:57;97903.00;;;14.99;84.84
19447;BME280;9862;49.462;11.054;2023-05-01T07:06:23;97904.94;;;15.04;86.45
19447;BME280;9862;49.462;11.054;2023-05-01T07:08:50;97900.75;;;15.08;85.32
19447;BME280;9862;49.462;11.054;2023-05-01T07:11:18;97907.22;;;15.12;85.72
19447;BME280;9862;49.462;11.054;2023-05-01T07:13:44;97903.34;;;15.20;85.13
19447;BME280;9862;49.462;11.054;2023-05-01T07:16:11;97896.06;;;15.32;85.73
19447;BME280;9862;49.462;11.054;2023-05-01T07:18:37;97901.94;;;15.45;85.54
19447;BME280;9862;49.462;11.054;2023-05-01T07:21:04;97896.25;;;15.59;85.16
19447;BME280;9862;49.462;11.054;2023-05-01T07:23:34;97882.75;;;15.70;84.40
19447;BME280;9862;49.462;11.054;2023-05-01T07:26:00;97888.47;;;15.74;82.54
19447;BME280;9862;49.462;11.054;2023-05-01T07:28:28;97876.44;;;15.77;82.84
19447;BME280;9862;49.462;11.054;2023-05-01T07:30:55;97874.88;;;15.81;83.01
19447;BME280;9862;49.462;11.054;2023-05-01T07:33:22;97874.44;;;16.06;77.96
19447;BME280;9862;49.462;11.054;2023-05-01T07:35:50;97873.13;;;15.91;79.97
19447;BME280;9862;49.462;11.054;2023-05-01T07:38:17;97866.66;;;15.87;82.04
19447;BME280;9862;49.462;11.054;2023-05-01T07:40:43;97863.22;;;15.92;82.40
19447;BME280;9862;49.462;11.054;2023-05-01T07:43:10;97863.72;;;15.89;79.68
19447;BME280;9862;49.462;11.054;2023-05-01T07:45:38;97860.31;;;15.93;81.45
19447;BME280;9862;49.462;11.054;2023-05-01T07:48:05;97868.41;;;15.98;80.24
19447;BME280;9862;49.462;11.054;2023-05-01T07:50:32;97867.44;;;16.05;81.01
19447;BME280;9862;49.462;11.054;2023-05-01T07:52:59;97864.88;;;16.15;77.40
19447;BME280;9862;49.462;11.054;2023-05-01T07:55:25;97862.22;;;16.15;78.61
19447;BME280;9862;49.462;11.054;2023-05-01T07:57:52;97860.22;;;16.27;78.27
19447;BME280;9862;49.462;11.054;2023-05-01T08:00:18;97854.84;;;16.27;79.24
19447;BME280;9862;49.462;11.054;2023-05-01T08:02:46;97855.41;;;16.29;80.40
19447;BME280;9862;49.462;11.054;2023-05-01T08:05:13;97845.66;;;16.45;78.90
19447;BME280;9862;49.462;11.054;2023-05-01T08:07:40;97849.53;;;16.54;80.33
19447;BME280;9862;49.462;11.054;2023-05-01T08:10:07;97840.91;;;16.52;78.51
19447;BME280;9862;49.462;11.054;2023-05-01T08:12:34;97838.50;;;16.50;80.22
19447;BME280;9862;49.462;11.054;2023-05-01T08:15:00;97835.31;;;16.58;79.58
19447;BME280;9862;49.462;11.054;2023-05-01T08:17:27;97832.47;;;16.65;76.08
19447;BME280;9862;49.462;11.054;2023-05-01T08:19:55;97840.47;;;16.60;77.21
19447;BME280;9862;49.462;11.054;2023-05-01T08:22:21;97841.78;;;16.57;79.69
19447;BME280;9862;49.462;11.054;2023-05-01T08:24:49;97835.47;;;16.69;79.77
19447;BME280;9862;49.462;11.054;2023-05-01T08:27:15;97842.59;;;16.80;78.76
19447;BME280;9862;49.462;11.054;2023-05-01T08:29:42;97830.78;;;16.81;76.96
19447;BME280;9862;49.462;11.054;2023-05-01T08:32:09;97829.50;;;16.88;77.55
19447;BME280;9862;49.462;11.054;2023-05-01T08:34:35;97835.38;;;16.85;78.78
19447;BME280;9862;49.462;11.054;2023-05-01T08:37:03;97833.50;;;16.86;78.50
19447;BME280;9862;49.462;11.054;2023-05-01T08:39:30;97832.75;;;16.91;78.24
19447;BME280;9862;49.462;11.054;2023-05-01T08:41:57;97830.91;;;16.96;80.09
19447;BME280;9862;49.462;11.054;2023-05-01T08:44:25;97838.22;;;17.01;79.11
19447;BME280;9862;49.462;11.054;2023-05-01T08:46:58;97833.16;;;17.04;81.40
19447;BME280;9862;49.462;11.054;2023-05-01T08:49:32;97835.38;;;17.12;79.62
19447;BME280;9862;49.462;11.054;2023-05-01T08:52:01;97827.06;;;17.14;76.57
19447;BME280;9862;49.462;11.054;2023-05-01T08:54:30;97830.59;;;17.20;74.82
19447;BME280;9862;49.462;11.054;2023-05-01T08:56:59;97837.50;;;17.10;75.78
19447;BME280;9862;49.462;11.054;2023-05-01T08:59:29;97827.22;;;17.02;77.58
19447;BME280;9862;49.462;11.054;2023-05-01T09:01:59;97829.22;;;17.17;73.96
19447;BME280;9862;49.462;11.054;2023-05-01T09:04:29;97835.81;;;16.99;75.75
19447;BME280;9862;49.462;11.054;2023-05-01T09:06:58;97827.47;;;17.01;76.45
19447;BME280;9862;49.462;11.054;2023-05-01T09:09:26;97836.81;;;16.93;77.26
19447;BME280;9862;49.462;11.054;2023-05-01T09:11:55;97827.13;;;16.92;77.05
19447;BME280;9862;49.462;11.054;2023-05-01T09:14:22;97825.53;;;16.96;77.87
19447;BME280;9862;49.462;11.054;2023-05-01T09:16:49;97832.16;;;17.15;74.11
19447;BME280;9862;49.462;11.054;2023-05-01T09:19:15;97840.16;;;17.05;74.70
19447;BME280;9862;49.462;11.054;2023-05-01T09:21:42;97833.69;;;17.06;74.77
19447;BME280;9862;49.462;11.054;2023-05-01T09:24:08;97830.44;;;16.99;75.37
19447;BME280;9862;49.462;11.054;2023-05-01T09:26:38;97839.59;;;17.03;74.66
19447;BME280;9862;49.462;11.054;2023-05-01T09:29:07;97836.09;;;17.03;76.01
19447;BME280;9862;49.462;11.054;2023-05-01T09:31:34;97834.28;;;17.08;76.38
19447;BME280;9862;49.462;11.054;2023-05-01T09:34:02;97838.59;;;17.09;76.14
19447;BME280;9862;49.462;11.054;2023-05-01T09:36:30;97837.47;;;17.05;75.02
19447;BME280;9862;49.462;11.054;2023-05-01T09:38:57;97839.66;;;17.08;74.50
19447;BME280;9862;49.462;11.054;2023-05-01T09:41:25;97838.81;;;17.08;75.38
19447;BME280;9862;49.462;11.054;2023-05-01T09:43:52;97831.81;;;17.07;76.33
19447;BME280;9862;49.462;11.054;2023-05-01T09:46:22;97833.75;;;17.11;76.58
19447;BME280;9862;49.462;11.054;2023-05-01T09:48:53;97840.28;;;17.21;75.30
19447;BME280;9862;49.462;11.054;2023-05-01T09:51:22;97837.00;;;17.13;74.88
19447;BME280;9862;49.462;11.054;2023-05-01T09:53:50;97837.91;;;17.24;73.25
19447;BME280;9862;49.462;11.054;2023-05-01T09:56:17;97841.38;;;17.20;74.69
19447;BME280;9862;49.462;11.054;2023-05-01T09:58:44;97829.00;;;17.19;73.85
19447;BME280;9862;49.462;11.054;2023-05-01T10:01:10;97836.53;;;17.22;73.52
19447;BME280;9862;49.462;11.054;2023-05-01T10:03:38;97842.03;;;17.37;73.45
19447;BME280;9862;49.462;11.054;2023-05-01T10:06:08;97844.16;;;17.35;72.04
19447;BME280;9862;49.462;11.054;2023-05-01T10:08:44;97842.94;;;17.15;74.40
19447;BME280;9862;49.462;11.054;2023-05-01T10:11:11;97834.28;;;17.08;76.18
19447;BME280;9862;49.462;11.054;2023-05-01T10:13:38;97832.88;;;17.06;76.92
19447;BME280;9862;49.462;11.054;2023-05-01T10:16:05;97839.13;;;17.11;75.23
19447;BME280;9862;49.462;11.054;2023-05-01T10:18:33;97834.00;;;17.10;76.81
19447;BME280;9862;49.462;11.054;2023-05-01T10:21:02;97842.38;;;17.13;75.41
19447;BME280;9862;49.462;11.054;2023-05-01T10:23:28;97835.91;;;17.09;76.89
19447;BME280;9862;49.462;11.054;2023-05-01T10:25:56;97833.66;;;17.01;76.58
19447;BME280;9862;49.462;11.054;2023-05-01T10:28:23;97835.75;;;16.94;77.43
19447;BME280;9862;49.462;11.054;2023-05-01T10:30:54;97842.44;;;16.92;78.90
19447;BME280;9862;49.462;11.054;2023-05-01T10:33:21;97851.44;;;17.07;86.20
19447;BME280;9862;49.462;11.054;2023-05-01T10:35:56;97849.69;;;16.91;100.00
19447;BME280;9862;49.462;11.054;2023-05-01T10:38:32;97860.56;;;15.75;100.00
19447;BME280;9862;49.462;11.054;2023-05-01T10:40:59;97862.41;;;15.24;100.00
19447;BME280;9862;49.462;11.054;2023-05-01T10:43:27;97863.22;;;15.08;100.00
19447;BME280;9862;49.462;11.054;2023-05-01T10:46:26;97857.94;;;14.84;100.00
19447;BME280;9862;49.462;11.054;2023-05-01T10:48:55;97866.41;;;14.65;100.00
19447;BME280;9862;49.462;11.054;2023-05-01T10:51:22;97870.31;;;14.33;100.00
19447;BME280;9862;49.462;11.054;2023-05-01T10:54:25;97881.31;;;14.09;100.00
19447;BME280;9862;49.462;11.054;2023-05-01T10:56:53;97882.34;;;14.19;100.00
19447;BME280;9862;49.462;11.054;2023-05-01T10:59:20;97885.38;;;14.11;100.00
19447;BME280;9862;49.462;11.054;2023-05-01T11:01:47;97888.06;;;13.53;100.00
19447;BME280;9862;49.462;11.054;2023-05-01T11:04:49;97887.38;;;13.15;100.00
19447;BME280;9862;49.462;11.054;2023-05-01T11:07:21;97881.66;;;13.12;100.00
19447;BME280;9862;49.462;11.054;2023-05-01T11:09:50;97895.09;;;12.94;100.00
19447;BME280;9862;49.462;11.054;2023-05-01T11:12:48;97889.03;;;12.86;100.00
19447;BME280;9862;49.462;11.054;2023-05-01T11:15:29;97902.22;;;12.81;100.00
19447;BME280;9862;49.462;11.054;2023-05-01T11:17:57;97891.47;;;12.88;100.00
19447;BME280;9862;49.462;11.054;2023-05-01T11:20:46;97891.16;;;12.96;100.00
19447;BME280;9862;49.462;11.054;2023-05-01T11:23:17;97887.28;;;12.92;100.00
19447;BME280;9862;49.462;11.054;2023-05-01T11:25:46;97886.75;;;13.02;100.00
19447;BME280;9862;49.462;11.054;2023-05-01T11:28:17;97889.88;;;12.99;100.00
19447;BME280;9862;49.462;11.054;2023-05-01T11:30:44;97888.97;;;13.05;100.00
19447;BME280;9862;49.462;11.054;2023-05-01T11:33:11;97878.84;;;12.95;100.00
19447;BME280;9862;49.462;11.054;2023-05-01T11:35:37;97889.88;;;12.69;100.00
19447;BME280;9862;49.462;11.054;2023-05-01T11:38:04;97885.69;;;12.73;100.00
19447;BME280;9862;49.462;11.054;2023-05-01T11:40:32;97885.84;;;12.78;100.00
19447;BME280;9862;49.462;11.054;2023-05-01T11:43:01;97886.44;;;12.80;100.00
19447;BME280;9862;49.462;11.054;2023-05-01T11:45:28;97885.13;;;12.71;100.00
19447;BME280;9862;49.462;11.054;2023-05-01T11:47:55;97880.06;;;12.81;100.00
19447;BME280;9862;49.462;11.054;2023-05-01T11:50:30;97876.88;;;13.02;100.00
19447;BME280;9862;49.462;11.054;2023-05-01T11:52:57;97879.38;;;13.15;100.00
19447;BME280;9862;49.462;11.054;2023-05-01T11:55:29;97883.72;;;13.28;100.00
19447;BME280;9862;49.462;11.054;2023-05-01T11:57:56;97877.47;;;13.46;100.00
19447;BME280;9862;49.462;11.054;2023-05-01T12:00:29;97884.09;;;13.55;100.00
19447;BME280;9862;49.462;11.054;2023-05-01T12:03:00;97890.03;;;13.57;100.00
19447;BME280;9862;49.462;11.054;2023-05-01T12:05:28;97884.22;;;13.60;100.00
19447;BME280;9862;49.462;11.054;2023-05-01T12:08:06;97879.91;;;13.59;100.00
19447;BME280;9862;49.462;11.054;2023-05-01T12:10:34;97884.00;;;13.73;100.00
19447;BME280;9862;49.462;11.054;2023-05-01T12:13:01;97890.06;;;13.81;100.00
19447;BME280;9862;49.462;11.054;2023-05-01T12:15:30;97887.50;;;13.86;100.00
19447;BME280;9862;49.462;11.054;2023-05-01T12:17:57;97877.38;;;13.99;100.00
19447;BME280;9862;49.462;11.054;2023-05-01T12:20:37;97884.56;;;14.11;100.00
19447;BME280;9862;49.462;11.054;2023-05-01T12:23:04;97879.91;;;14.06;100.00
19447;BME280;9862;49.462;11.054;2023-05-01T12:25:31;97874.09;;;13.97;100.00
19447;BME280;9862;49.462;11.054;2023-05-01T12:27:59;97884.81;;;13.86;100.00
19447;BME280;9862;49.462;11.054;2023-05-01T12:30:27;97879.22;;;13.99;100.00
19447;BME280;9862;49.462;11.054;2023-05-01T12:32:55;97882.72;;;14.11;100.00
19447;BME280;9862;49.462;11.054;2023-05-01T12:35:28;97873.94;;;14.27;100.00
19447;BME280;9862;49.462;11.054;2023-05-01T12:37:54;97874.03;;;14.44;100.00
19447;BME280;9862;49.462;11.054;2023-05-01T12:40:21;97870.41;;;14.62;100.00
19447;BME280;9862;49.462;11.054;2023-05-01T12:42:53;97867.59;;;14.69;100.00
19447;BME280;9862;49.462;11.054;2023-05-01T12:45:20;97862.59;;;14.89;100.00
19447;BME280;9862;49.462;11.054;2023-05-01T12:47:47;97862.84;;;14.87;100.00
19447;BME280;9862;49.462;11.054;2023-05-01T12:50:15;97856.00;;;14.80;100.00
19447;BME280;9862;49.462;11.054;2023-05-01T12:52:41;97869.66;;;14.78;100.00
19447;BME280;9862;49.462;11.054;2023-05-01T12:55:08;97866.38;;;14.76;100.00
19447;BME280;9862;49.462;11.054;2023-05-01T12:57:52;97868.09;;;14.82;100.00
19447;BME280;9862;49.462;11.054;2023-05-01T13:00:20;97865.59;;;14.93;100.00
19447;BME280;9862;49.462;11.054;2023-05-01T13:02:47;97863.41;;;14.89;100.00
19447;BME280;9862;49.462;11.054;2023-05-01T13:05:15;97857.50;;;14.87;100.00